Time;durP1;ratioP1;P1;durP2;ratioP2;P2;SDS_P1;SDS_P2;PMS_P1;PMS_P2;Temp;Humidity;BMP_temperature;BMP_pressure;BME280_temperature;BME280_humidity;BME280_pressure;Samples;Min_cycle;Max_cycle;Signal;HPM_P1;HPM_P2
2023/10/21 00:02:18;;;;;;;7.30;3.10;;;;;;;11.64;94.97;98183.34;5073700;28;20186;-70
2023/10/21 00:04:44;;;;;;;2.77;2.73;;;;;;;11.61;95.14;98185.63;5073329;28;20202;-70
2023/10/21 00:07:11;;;;;;;3.17;3.00;;;;;;;11.61;94.85;98188.31;5073242;28;20211;-70
2023/10/21 00:09:37;;;;;;;2.53;2.53;;;;;;;11.60;95.00;98192.03;5073846;28;20190;-70
2023/10/21 00:12:06;;;;;;;3.33;3.20;;;;;;;11.60;95.00;98194.69;5073288;28;20183;-70
2023/10/21 00:14:33;;;;;;;3.57;3.47;;;;;;;11.60;95.07;98194.69;5073202;28;20186;-70
2023/10/21 00:17:03;;;;;;;3.17;3.00;;;;;;;11.59;94.88;98195.72;5073093;28;20261;-70
2023/10/21 00:19:30;;;;;;;2.73;2.63;;;;;;;11.57;95.28;98195.97;5073215;28;20190;-70
2023/10/21 00:21:56;;;;;;;3.10;2.90;;;;;;;11.52;95.22;98198.47;5073188;28;20236;-70
2023/10/21 00:24:24;;;;;;;2.73;2.53;;;;;;;11.49;95.03;98204.28;5073097;28;20686;-70
2023/10/21 00:26:50;;;;;;;2.47;2.47;;;;;;;11.47;95.21;98209.00;5073425;28;20641;-70
2023/10/21 00:29:17;;;;;;;2.67;2.67;;;;;;;11.48;95.47;98215.19;5073414;28;20676;-70
2023/10/21 00:31:44;;;;;;;2.43;2.43;;;;;;;11.45;95.17;98219.13;5073094;28;20179;-70
2023/10/21 00:34:11;;;;;;;2.40;2.40;;;;;;;11.40;94.87;98224.31;5071795;28;20575;-70
2023/10/21 00:36:38;;;;;;;3.07;2.90;;;;;;;11.35;95.04;98218.78;5072997;28;20206;-70
2023/10/21 00:39:10;;;;;;;2.77;2.77;;;;;;;11.32;95.12;98217.38;5073305;28;20186;-70
2023/10/21 00:41:38;;;;;;;3.53;3.23;;;;;;;11.31;95.13;98229.09;5073840;28;20530;-70
2023/10/21 00:44:05;;;;;;;3.07;2.97;;;;;;;11.31;95.39;98229.09;5072912;28;20595;-70
2023/10/21 00:46:31;;;;;;;2.80;2.80;;;;;;;11.33;95.26;98235.03;5071642;28;20214;-70
2023/10/21 00:48:58;;;;;;;5.30;3.80;;;;;;;11.35;95.11;98234.84;5073205;28;20666;-70
2023/10/21 00:51:25;;;;;;;3.63;3.53;;;;;;;11.37;95.35;98230.91;5073180;28;20190;-70
2023/10/21 00:53:53;;;;;;;3.13;2.90;;;;;;;11.39;95.37;98239.53;5073164;28;20221;-70
2023/10/21 00:56:20;;;;;;;4.00;3.90;;;;;;;11.37;95.50;98236.25;5072788;28;20768;-70
2023/10/21 00:58:46;;;;;;;2.47;2.47;;;;;;;11.36;95.58;98236.47;5071607;28;20236;-70
2023/10/21 01:01:14;;;;;;;3.57;3.37;;;;;;;11.40;95.40;98233.16;5073378;28;20187;-70
2023/10/21 01:03:41;;;;;;;3.13;3.00;;;;;;;11.38;95.43;98237.88;5073059;28;20194;-70
2023/10/21 01:06:07;;;;;;;3.00;2.80;;;;;;;11.35;95.62;98249.03;5072647;28;20225;-70
2023/10/21 01:08:45;;;;;;;3.30;3.27;;;;;;;11.38;95.82;98247.78;5071481;28;20195;-70
2023/10/21 01:11:12;;;;;;;3.27;3.27;;;;;;;11.39;95.52;98244.06;5072258;28;20191;-70
2023/10/21 01:13:39;;;;;;;3.67;3.53;;;;;;;11.42;95.84;98248.97;5072879;28;20277;-70
2023/10/21 01:16:06;;;;;;;3.50;3.40;;;;;;;11.42;95.87;98246.28;5072359;28;20210;-70
2023/10/21 01:18:33;;;;;;;3.20;3.10;;;;;;;11.44;95.99;98252.25;5072934;28;20183;-70
2023/10/21 01:21:01;;;;;;;3.80;3.70;;;;;;;11.42;95.71;98259.66;5071364;28;20248;-70
2023/10/21 01:23:32;;;;;;;3.50;3.37;;;;;;;11.37;95.36;98254.97;5072636;28;20225;-70
2023/10/21 01:25:58;;;;;;;2.93;2.83;;;;;;;11.32;95.52;98260.19;5072426;28;20207;-70
2023/10/21 01:28:25;;;;;;;3.10;2.90;;;;;;;11.30;95.62;98256.88;5071265;28;20194;-70
2023/10/21 01:30:52;;;;;;;4.00;3.87;;;;;;;11.30;95.43;98262.22;5073067;28;20595;-70
2023/10/21 01:33:18;;;;;;;3.60;3.60;;;;;;;11.33;95.82;98258.31;5071209;28;20662;-70
2023/10/21 01:35:45;;;;;;;3.27;3.27;;;;;;;11.33;95.35;98266.34;5072438;28;20202;-70
2023/10/21 01:38:12;;;;;;;8.20;3.30;;;;;;;11.30;95.68;98269.44;5072999;28;20218;-70
2023/10/21 01:40:38;;;;;;;3.30;3.10;;;;;;;11.29;95.25;98270.47;5071888;28;20224;-70
2023/10/21 01:43:05;;;;;;;5.47;3.23;;;;;;;11.22;95.11;98275.88;5075987;28;20252;-70
2023/10/21 01:45:35;;;;;;;2.83;2.83;;;;;;;11.17;95.44;98274.88;5075759;28;20619;-70
2023/10/21 01:48:02;;;;;;;2.90;2.90;;;;;;;11.14;95.45;98277.97;5074656;28;20209;-70
2023/10/21 01:50:29;;;;;;;2.63;2.63;;;;;;;11.12;95.50;98280.06;5075851;28;20275;-70
2023/10/21 01:52:56;;;;;;;2.63;2.53;;;;;;;11.12;95.98;98282.72;5075845;28;20248;-70
2023/10/21 01:55:23;;;;;;;2.90;2.80;;;;;;;11.13;95.58;98289.69;5075935;28;20588;-70
2023/10/21 01:57:50;;;;;;;3.43;3.33;;;;;;;11.11;95.79;98284.59;5075979;28;20191;-70
2023/10/21 02:00:20;;;;;;;3.37;3.37;;;;;;;11.11;95.81;98289.94;5074965;28;20259;-70
2023/10/21 02:02:51;;;;;;;4.10;3.00;;;;;;;11.12;95.98;98301.44;5075719;28;20169;-70
2023/10/21 02:05:23;;;;;;;3.50;3.50;;;;;;;11.14;95.85;98310.88;5074201;28;20240;-70
2023/10/21 02:07:50;;;;;;;2.73;2.70;;;;;;;11.17;96.17;98309.63;5074317;28;20235;-70
2023/10/21 02:10:17;;;;;;;3.37;3.37;;;;;;;11.21;96.05;98302.81;5075483;28;20186;-70
2023/10/21 02:12:44;;;;;;;3.07;3.07;;;;;;;11.22;96.02;98307.97;5075441;28;20186;-70
2023/10/21 02:15:16;;;;;;;3.20;3.10;;;;;;;11.22;95.98;98313.31;5075815;28;20186;-71
2023/10/21 02:17:44;;;;;;;3.60;3.40;;;;;;;11.22;95.89;98310.63;5074414;28;20673;-70
2023/10/21 02:20:13;;;;;;;7.60;3.43;;;;;;;11.24;95.62;98321.13;5074020;28;20662;-70
2023/10/21 02:22:41;;;;;;;3.63;3.43;;;;;;;11.19;95.79;98324.44;5075806;28;20186;-70
2023/10/21 02:25:11;;;;;;;3.43;3.23;;;;;;;11.18;95.77;98330.81;5073818;28;20207;-70
2023/10/21 02:27:40;;;;;;;3.10;3.03;;;;;;;11.19;96.08;98331.66;5075485;28;20179;-70
2023/10/21 02:30:10;;;;;;;3.00;2.90;;;;;;;11.22;96.01;98333.88;5073879;28;20654;-70
2023/10/21 02:32:40;;;;;;;2.87;2.87;;;;;;;11.23;96.13;98333.69;5075093;28;20183;-70
2023/10/21 02:35:08;;;;;;;2.83;2.83;;;;;;;11.25;96.01;98330.78;5073675;28;20657;-70
2023/10/21 02:37:34;;;;;;;2.77;2.67;;;;;;;11.26;96.41;98341.25;5073700;28;20213;-70
2023/10/21 02:40:03;;;;;;;3.23;3.00;;;;;;;11.28;96.30;98347.25;5073679;28;20264;-70
2023/10/21 02:42:30;;;;;;;2.93;2.63;;;;;;;11.31;96.34;98348.66;5073597;28;20547;-70
2023/10/21 02:44:57;;;;;;;2.97;2.97;;;;;;;11.31;96.21;98349.47;5073449;28;20252;-73
2023/10/21 02:47:24;;;;;;;2.73;2.73;;;;;;;11.34;96.40;98361.59;5073502;28;20280;-73
2023/10/21 02:49:50;;;;;;;3.07;2.93;;;;;;;11.36;96.22;98362.22;5073475;28;20657;-73
2023/10/21 02:52:17;;;;;;;3.33;3.30;;;;;;;11.37;96.21;98367.31;5074565;28;20198;-73
2023/10/21 02:54:43;;;;;;;3.77;3.67;;;;;;;11.39;96.18;98372.47;5074659;28;20186;-70
2023/10/21 02:57:10;;;;;;;2.87;2.73;;;;;;;11.39;96.36;98375.97;5074533;28;20206;-71
2023/10/21 02:59:36;;;;;;;3.07;2.97;;;;;;;11.42;96.53;98382.72;5074855;28;20232;-70
2023/10/21 03:02:03;;;;;;;3.33;3.23;;;;;;;11.45;96.33;98387.69;5074964;28;20190;-70
2023/10/21 03:04:29;;;;;;;2.70;2.70;;;;;;;11.41;96.75;98392.63;5074350;28;20244;-70
2023/10/21 03:06:56;;;;;;;3.23;3.23;;;;;;;11.48;96.00;98389.09;5074355;28;20277;-72
2023/10/21 03:09:22;;;;;;;3.43;3.00;;;;;;;11.49;96.10;98394.25;5073078;28;20665;-72
2023/10/21 03:11:49;;;;;;;3.10;3.00;;;;;;;11.45;96.35;98398.38;5074250;28;20654;-72
2023/10/21 03:14:15;;;;;;;3.00;3.00;;;;;;;11.41;96.30;98399.84;5073141;28;20190;-72
2023/10/21 03:16:42;;;;;;;6.43;3.37;;;;;;;11.42;96.50;98404.13;5072725;28;20236;-73
2023/10/21 03:19:08;;;;;;;3.10;3.07;;;;;;;11.48;96.39;98405.97;5074437;28;20592;-73
2023/10/21 03:21:36;;;;;;;2.90;2.90;;;;;;;11.52;96.46;98419.75;5074094;28;20581;-72
2023/10/21 03:24:03;;;;;;;3.60;3.50;;;;;;;11.51;96.44;98418.91;5074312;28;20190;-72
2023/10/21 03:26:29;;;;;;;3.50;3.50;;;;;;;11.50;96.64;98427.97;5074065;28;20210;-72
2023/10/21 03:28:56;;;;;;;3.23;3.13;;;;;;;11.51;96.49;98429.63;5074238;28;20185;-72
2023/10/21 03:31:23;;;;;;;3.53;3.43;;;;;;;11.53;96.99;98435.59;5073906;28;20299;-72
2023/10/21 03:33:49;;;;;;;2.87;2.77;;;;;;;11.56;96.46;98440.50;5074448;28;20171;-72
2023/10/21 03:36:16;;;;;;;2.83;2.83;;;;;;;11.56;96.83;98443.19;5073747;28;20230;-73
2023/10/21 03:38:42;;;;;;;3.60;3.50;;;;;;;11.58;97.03;98451.00;5073738;28;20189;-73
2023/10/21 03:41:11;;;;;;;3.50;3.40;;;;;;;11.58;96.62;98457.19;5074055;28;20264;-73
2023/10/21 03:43:37;;;;;;;4.37;3.97;;;;;;;11.62;96.86;98457.56;5072353;28;20198;-73
2023/10/21 03:46:07;;;;;;;3.33;3.13;;;;;;;11.63;96.87;98459.19;5073526;28;20218;-73
2023/10/21 03:48:34;;;;;;;3.47;3.13;;;;;;;11.67;97.10;98460.44;5073922;28;20185;-73
2023/10/21 03:51:12;;;;;;;7.10;4.57;;;;;;;11.70;97.17;98468.03;5072388;28;20198;-73
2023/10/21 03:53:46;;;;;;;4.00;3.77;;;;;;;11.74;96.96;98472.78;5073957;28;20190;-73
2023/10/21 03:56:12;;;;;;;4.13;3.93;;;;;;;11.81;97.41;98478.09;5073452;28;20210;-73
2023/10/21 03:58:40;;;;;;;4.17;4.10;;;;;;;11.86;97.64;98489.81;5073768;28;20171;-73
2023/10/21 04:01:07;;;;;;;4.70;4.60;;;;;;;11.90;97.20;98480.31;5073681;28;20191;-73
2023/10/21 04:03:34;;;;;;;7.13;6.83;;;;;;;11.98;97.57;98478.41;5073713;28;20175;-73
2023/10/21 04:06:01;;;;;;;8.37;6.03;;;;;;;12.02;97.42;98491.13;5073518;28;20241;-72
2023/10/21 04:08:29;;;;;;;5.87;5.63;;;;;;;11.99;97.49;98485.41;5073321;28;20186;-72
2023/10/21 04:10:56;;;;;;;5.73;5.53;;;;;;;12.01;97.84;98504.75;5073277;28;20190;-72
2023/10/21 04:13:22;;;;;;;4.43;4.33;;;;;;;12.03;97.75;98502.69;5073558;28;20239;-72
2023/10/21 04:15:49;;;;;;;5.50;5.10;;;;;;;12.08;97.66;98506.34;5073380;28;20214;-73
2023/10/21 04:18:17;;;;;;;5.40;5.20;;;;;;;12.11;97.90;98510.44;5073747;28;20273;-73
2023/10/21 04:20:44;;;;;;;4.83;4.70;;;;;;;12.12;97.82;98510.25;5073447;28;20654;-73
2023/10/21 04:23:10;;;;;;;6.60;6.17;;;;;;;12.15;98.21;98517.03;5073169;28;20186;-73
2023/10/21 04:25:36;;;;;;;6.87;6.47;;;;;;;12.18;97.26;98524.63;5073572;28;20678;-73
2023/10/21 04:28:03;;;;;;;5.57;5.37;;;;;;;12.21;97.90;98529.56;5073103;28;20190;-73
2023/10/21 04:30:30;;;;;;;4.20;4.17;;;;;;;12.27;98.31;98528.69;5073644;28;20190;-72
2023/10/21 04:32:56;;;;;;;3.33;3.23;;;;;;;12.35;98.13;98539.13;5073091;28;20233;-72
2023/10/21 04:35:23;;;;;;;8.23;2.93;;;;;;;12.41;98.16;98542.81;5073009;28;20186;-72
2023/10/21 04:37:50;;;;;;;3.10;2.90;;;;;;;12.45;98.41;98544.84;5073138;28;20202;-72
2023/10/21 04:40:16;;;;;;;5.23;2.67;;;;;;;12.53;98.56;98543.75;5073319;28;20193;-72
2023/10/21 04:42:43;;;;;;;3.03;2.93;;;;;;;12.63;98.46;98547.63;5073311;28;20239;-72
2023/10/21 04:45:10;;;;;;;2.63;2.63;;;;;;;12.67;98.33;98548.81;5073131;28;20186;-74
2023/10/21 04:47:36;;;;;;;2.93;2.50;;;;;;;12.71;98.41;98552.72;5073206;28;20186;-75
2023/10/21 04:50:05;;;;;;;2.33;2.33;;;;;;;12.72;98.75;98558.91;5073451;28;20186;-76
2023/10/21 04:52:31;;;;;;;3.00;2.90;;;;;;;12.78;98.55;98566.03;5072903;28;20681;-76
2023/10/21 04:55:00;;;;;;;2.43;2.43;;;;;;;12.97;98.55;98574.97;5073475;28;20179;-75
2023/10/21 04:57:26;;;;;;;3.07;2.97;;;;;;;12.91;98.80;98570.47;5073078;28;20210;-75
2023/10/21 04:59:53;;;;;;;4.10;2.70;;;;;;;12.90;99.08;98585.75;5072819;28;20187;-75
2023/10/21 05:02:20;;;;;;;3.07;3.00;;;;;;;12.94;98.29;98592.34;5072811;28;20201;-75
2023/10/21 05:04:48;;;;;;;3.10;3.10;;;;;;;12.97;98.99;98591.91;5072829;28;20189;-75
2023/10/21 05:07:16;;;;;;;2.20;2.20;;;;;;;12.98;98.78;98598.09;5072682;28;20238;-76
2023/10/21 05:09:42;;;;;;;4.30;2.57;;;;;;;12.96;99.03;98600.97;5073012;28;20225;-75
2023/10/21 05:12:10;;;;;;;2.10;2.10;;;;;;;13.00;99.19;98606.72;5073054;28;20611;-74
2023/10/21 05:14:37;;;;;;;3.27;3.20;;;;;;;13.05;99.05;98612.25;5073030;28;20537;-74
2023/10/21 05:17:05;;;;;;;2.67;2.60;;;;;;;13.05;99.13;98618.44;5075790;28;20209;-74
2023/10/21 05:19:32;;;;;;;2.47;2.47;;;;;;;13.04;99.18;98624.03;5076415;28;20194;-74
2023/10/21 05:21:59;;;;;;;2.60;2.60;;;;;;;13.08;99.61;98627.91;5076885;28;20197;-74
2023/10/21 05:24:25;;;;;;;3.10;2.90;;;;;;;13.09;99.32;98632.25;5077148;28;20248;-74
2023/10/21 05:26:52;;;;;;;3.43;3.13;;;;;;;13.08;99.32;98639.47;5076199;28;20690;-74
2023/10/21 05:29:19;;;;;;;3.40;3.40;;;;;;;13.12;99.35;98637.19;5076221;28;20654;-74
2023/10/21 05:31:47;;;;;;;2.80;2.70;;;;;;;13.24;98.83;98641.63;5076175;28;20658;-74
2023/10/21 05:34:18;;;;;;;2.43;2.43;;;;;;;13.20;99.07;98642.28;5076158;28;20190;-74
2023/10/21 05:36:45;;;;;;;2.97;2.87;;;;;;;13.19;99.10;98652.22;5076195;28;20213;-74
2023/10/21 05:39:12;;;;;;;2.70;2.70;;;;;;;13.17;99.42;98648.91;5076065;28;20253;-74
2023/10/21 05:41:40;;;;;;;2.67;2.60;;;;;;;13.18;99.30;98657.78;5076001;28;20193;-74
2023/10/21 05:44:07;;;;;;;3.07;2.90;;;;;;;13.17;99.27;98656.97;5076547;28;20191;-74
2023/10/21 05:46:34;;;;;;;3.27;3.07;;;;;;;13.18;99.08;98663.97;5076335;28;20214;-74
2023/10/21 05:49:02;;;;;;;2.80;2.80;;;;;;;13.18;99.12;98674.72;5076427;28;20187;-74
2023/10/21 05:51:29;;;;;;;3.53;3.33;;;;;;;13.16;98.84;98679.47;5075814;28;20248;-74
2023/10/21 05:53:57;;;;;;;3.03;2.87;;;;;;;13.17;99.23;98685.66;5076023;28;20221;-74
2023/10/21 05:56:23;;;;;;;6.80;3.63;;;;;;;13.15;99.35;98688.53;5075653;28;20206;-74
2023/10/21 05:58:50;;;;;;;4.30;4.23;;;;;;;13.15;99.24;98685.88;5075735;28;20299;-74
2023/10/21 06:01:17;;;;;;;3.73;3.53;;;;;;;13.13;99.11;98693.31;5075664;28;20186;-74
2023/10/21 06:03:43;;;;;;;3.80;3.70;;;;;;;13.12;99.09;98707.78;5075618;28;20201;-74
2023/10/21 06:06:10;;;;;;;4.77;4.67;;;;;;;13.10;99.86;98709.00;5075739;28;20241;-73
2023/10/21 06:08:36;;;;;;;6.10;4.23;;;;;;;13.09;99.15;98713.53;5075600;28;20179;-75
2023/10/21 06:11:03;;;;;;;4.73;4.53;;;;;;;13.07;99.40;98723.66;5075563;28;20189;-74
2023/10/21 06:13:29;;;;;;;4.23;4.13;;;;;;;13.07;99.12;98734.38;5075724;28;20190;-74
2023/10/21 06:15:56;;;;;;;5.47;5.10;;;;;;;13.06;98.93;98734.63;5075281;28;20210;-73
2023/10/21 06:18:22;;;;;;;4.43;4.43;;;;;;;13.04;99.11;98742.06;5075654;28;20183;-73
2023/10/21 06:20:49;;;;;;;3.60;3.50;;;;;;;13.05;99.20;98746.38;5075394;28;20218;-73
2023/10/21 06:23:16;;;;;;;4.23;3.73;;;;;;;13.02;99.27;98754.88;5075264;28;20192;-73
2023/10/21 06:25:43;;;;;;;4.73;4.40;;;;;;;12.99;99.24;98757.97;5075079;28;20207;-74
2023/10/21 06:28:11;;;;;;;4.47;4.33;;;;;;;13.00;99.13;98767.66;5075501;28;20518;-74
2023/10/21 06:30:40;;;;;;;5.30;4.60;;;;;;;12.99;98.92;98768.69;5075129;28;20186;-74
2023/10/21 06:33:10;;;;;;;8.97;7.73;;;;;;;12.95;99.24;98780.88;5075306;28;20189;-74
2023/10/21 06:35:38;;;;;;;8.43;7.77;;;;;;;12.93;99.30;98773.06;5075566;28;20685;-74
2023/10/21 06:38:08;;;;;;;8.70;7.77;;;;;;;12.94;99.12;98781.94;5075232;28;20186;-74
2023/10/21 06:40:35;;;;;;;7.50;6.80;;;;;;;12.96;99.30;98774.50;5075229;28;20236;-74
2023/10/21 06:43:22;;;;;;;9.07;7.33;;;;;;;12.97;99.15;98789.56;5075171;28;20182;-74
2023/10/21 06:45:50;;;;;;;10.97;7.33;;;;;;;12.98;99.20;98801.94;5074912;28;20207;-73
2023/10/21 06:48:17;;;;;;;7.80;7.30;;;;;;;13.05;99.17;98797.34;5075046;28;20719;-73
2023/10/21 06:50:43;;;;;;;10.67;6.80;;;;;;;13.10;99.20;98810.97;5074713;28;20233;-74
2023/10/21 06:53:10;;;;;;;10.93;7.23;;;;;;;13.12;99.84;98807.03;5074917;28;20277;-74
2023/10/21 06:55:44;;;;;;;10.80;6.97;;;;;;;13.15;99.07;98813.84;5074566;28;20279;-73
2023/10/21 06:58:11;;;;;;;25.73;10.87;;;;;;;13.14;99.17;98818.41;5074925;28;20235;-73
2023/10/21 07:00:38;;;;;;;21.30;8.70;;;;;;;13.17;99.19;98833.22;5074777;28;20248;-73
2023/10/21 07:03:05;;;;;;;9.47;8.60;;;;;;;13.17;99.23;98833.22;5074492;28;20658;-73
2023/10/21 07:05:33;;;;;;;12.90;9.77;;;;;;;13.16;99.50;98834.25;5074288;28;20685;-73
2023/10/21 07:07:59;;;;;;;9.07;8.30;;;;;;;13.15;99.11;98838.00;5074376;28;20222;-73
2023/10/21 07:10:29;;;;;;;8.70;8.07;;;;;;;13.20;99.33;98843.53;5074354;28;20183;-73
2023/10/21 07:12:56;;;;;;;8.43;7.57;;;;;;;13.20;99.33;98848.88;5074228;28;20193;-73
2023/10/21 07:15:25;;;;;;;9.60;8.73;;;;;;;13.20;99.07;98854.25;5073950;28;20260;-73
2023/10/21 07:17:52;;;;;;;17.43;9.33;;;;;;;13.20;98.63;98860.44;5074473;28;20254;-73
2023/10/21 07:20:19;;;;;;;20.07;11.00;;;;;;;13.23;99.09;98875.31;5074655;28;20534;-73
2023/10/21 07:22:46;;;;;;;19.70;8.87;;;;;;;13.21;99.44;98872.00;5074612;28;20198;-73
2023/10/21 07:25:12;;;;;;;9.03;8.27;;;;;;;13.21;99.20;98874.69;5074208;28;20251;-73
2023/10/21 07:27:39;;;;;;;6.67;6.03;;;;;;;13.29;99.10;98874.44;5074194;28;20213;-74
2023/10/21 07:30:06;;;;;;;6.80;6.20;;;;;;;13.25;99.26;98887.47;5073938;28;20190;-74
2023/10/21 07:32:32;;;;;;;9.93;8.93;;;;;;;13.27;99.29;98887.28;5074161;28;20189;-73
2023/10/21 07:34:59;;;;;;;7.97;7.47;;;;;;;13.28;99.49;98899.66;5073888;28;20187;-73
2023/10/21 07:37:26;;;;;;;6.40;6.13;;;;;;;13.28;99.21;98899.66;5073697;28;20260;-74
2023/10/21 07:39:58;;;;;;;4.07;3.60;;;;;;;13.30;99.13;98910.16;5073411;28;20210;-74
2023/10/21 07:42:25;;;;;;;3.30;3.10;;;;;;;13.28;98.94;98913.88;5073654;28;20190;-74
2023/10/21 07:44:53;;;;;;;3.60;1.93;;;;;;;13.32;98.28;98921.53;5073757;28;20193;-74
2023/10/21 07:47:20;;;;;;;1.83;1.73;;;;;;;13.32;97.92;98919.66;5073460;28;20244;-73
2023/10/21 07:49:47;;;;;;;2.40;2.37;;;;;;;13.32;98.21;98927.72;5074490;28;20584;-74
2023/10/21 07:52:13;;;;;;;10.17;2.17;;;;;;;13.33;98.08;98931.19;5073836;28;20186;-74
2023/10/21 07:54:40;;;;;;;1.90;1.90;;;;;;;13.32;97.88;98929.56;5073845;28;20197;-74
2023/10/21 07:57:08;;;;;;;2.33;2.20;;;;;;;13.38;98.03;98942.94;5073425;28;20205;-74
2023/10/21 07:59:34;;;;;;;1.83;1.83;;;;;;;13.37;97.75;98945.84;5073733;28;20605;-74
2023/10/21 08:02:01;;;;;;;5.87;2.40;;;;;;;13.38;97.55;98945.63;5073697;28;20198;-73
2023/10/21 08:04:28;;;;;;;2.03;2.03;;;;;;;13.33;97.10;98953.50;5073380;28;20182;-74
2023/10/21 08:06:55;;;;;;;1.90;1.90;;;;;;;13.34;97.84;98965.06;5073318;28;20213;-73
2023/10/21 08:09:22;;;;;;;3.00;2.90;;;;;;;13.29;97.83;98960.31;5073605;28;20590;-74
2023/10/21 08:11:48;;;;;;;1.77;1.77;;;;;;;13.32;97.65;98977.88;5073330;28;20269;-74
2023/10/21 08:14:15;;;;;;;2.87;2.70;;;;;;;13.33;97.77;98991.06;5073306;28;20232;-74
2023/10/21 08:16:44;;;;;;;7.33;1.80;;;;;;;13.34;97.49;98998.09;5073678;28;20685;-73
2023/10/21 08:19:10;;;;;;;1.37;1.30;;;;;;;13.36;96.95;98987.16;5073217;28;20248;-74
2023/10/21 08:21:37;;;;;;;1.40;1.40;;;;;;;13.33;96.96;98993.75;5073534;28;20218;-73
2023/10/21 08:24:04;;;;;;;1.20;1.20;;;;;;;13.32;96.50;98997.50;5073256;28;20187;-74
2023/10/21 08:26:31;;;;;;;1.60;1.50;;;;;;;13.35;96.67;98996.25;5073575;28;20210;-73
2023/10/21 08:28:58;;;;;;;1.50;1.50;;;;;;;13.34;96.38;99010.69;5073798;28;20182;-74
2023/10/21 08:31:24;;;;;;;1.10;1.10;;;;;;;13.40;95.13;99013.38;5073342;28;20605;-74
2023/10/21 08:33:52;;;;;;;1.20;1.20;;;;;;;13.47;94.59;99016.03;5073695;28;20166;-74
2023/10/21 08:36:20;;;;;;;1.37;1.30;;;;;;;13.53;93.29;99024.06;5073123;28;20217;-73
2023/10/21 08:38:48;;;;;;;1.20;1.20;;;;;;;13.53;93.43;99040.19;5073090;28;20262;-75
2023/10/21 08:41:15;;;;;;;0.70;0.70;;;;;;;13.69;92.47;99050.44;5073240;28;20187;-74
2023/10/21 08:43:46;;;;;;;8.60;1.00;;;;;;;13.61;91.91;99053.38;5073057;28;20190;-73
2023/10/21 08:46:17;;;;;;;1.50;1.50;;;;;;;13.75;92.17;99066.75;5073105;28;20214;-74
2023/10/21 08:48:46;;;;;;;1.37;1.37;;;;;;;13.82;92.17;99060.31;5073554;28;20179;-74
2023/10/21 08:51:25;;;;;;;19.20;1.97;;;;;;;14.09;90.10;99060.97;5076426;28;20569;-73
2023/10/21 08:53:59;;;;;;;1.20;1.10;;;;;;;14.13;89.01;99071.09;5077237;28;20178;-73
2023/10/21 08:56:27;;;;;;;1.27;1.27;;;;;;;14.20;88.07;99076.44;5077008;28;20217;-73
2023/10/21 08:58:57;;;;;;;1.10;1.10;;;;;;;14.33;87.98;99076.38;5076709;28;20194;-73
2023/10/21 09:01:24;;;;;;;0.90;0.90;;;;;;;14.41;88.94;99078.84;5076922;28;20183;-72
2023/10/21 09:03:51;;;;;;;1.40;1.40;;;;;;;14.39;84.99;99080.06;5077457;28;20183;-73
2023/10/21 09:06:18;;;;;;;1.10;1.10;;;;;;;14.50;84.79;99088.31;5076574;28;20238;-73
2023/10/21 09:08:47;;;;;;;1.20;1.20;;;;;;;14.58;84.49;99092.59;5076941;28;20194;-73
2023/10/21 09:11:17;;;;;;;3.93;1.00;;;;;;;14.45;83.87;99087.28;5076599;28;20191;-73
2023/10/21 09:13:44;;;;;;;1.10;1.10;;;;;;;14.49;83.17;99086.66;5076532;28;20194;-73
2023/10/21 09:16:19;;;;;;;1.03;1.03;;;;;;;14.59;82.88;99096.94;5076548;28;20620;-72
2023/10/21 09:18:59;;;;;;;1.00;1.00;;;;;;;14.66;83.30;99099.56;5076785;28;20182;-73
2023/10/21 09:21:33;;;;;;;1.00;1.00;;;;;;;14.75;83.04;99109.84;5076411;28;20654;-73
2023/10/21 09:24:02;;;;;;;1.13;1.13;;;;;;;14.79;80.07;99094.91;5077015;28;20196;-73
2023/10/21 09:26:55;;;;;;;1.40;1.30;;;;;;;14.80;79.78;99109.19;5076353;28;20214;-73
2023/10/21 09:29:22;;;;;;;1.20;1.20;;;;;;;14.79;78.44;99115.63;5076077;28;20207;-72
2023/10/21 09:31:51;;;;;;;1.33;1.27;;;;;;;14.82;79.56;99112.47;5076206;28;20183;-73
2023/10/21 09:34:30;;;;;;;1.10;1.10;;;;;;;14.91;78.13;99112.00;5076492;28;20630;-74
2023/10/21 09:36:58;;;;;;;1.13;1.13;;;;;;;14.89;78.07;99124.03;5076644;28;20206;-69
2023/10/21 09:39:29;;;;;;;1.10;1.00;;;;;;;14.88;77.61;99131.28;5076361;28;20641;-69
2023/10/21 09:41:58;;;;;;;1.00;1.00;;;;;;;15.11;77.90;99133.38;5076545;28;20190;-69
2023/10/21 09:44:25;;;;;;;0.90;0.90;;;;;;;15.12;74.72;99129.63;5076217;28;20208;-69
2023/10/21 09:46:55;;;;;;;1.20;1.20;;;;;;;15.03;77.64;99142.53;5075830;28;20214;-70
2023/10/21 09:49:27;;;;;;;0.83;0.83;;;;;;;14.97;77.69;99150.69;5076254;28;20676;-69
2023/10/21 09:52:06;;;;;;;1.63;1.60;;;;;;;15.24;76.47;99149.41;5076118;28;20182;-69
2023/10/21 09:54:52;;;;;;;1.40;1.40;;;;;;;15.40;76.99;99143.47;5076084;28;20228;-69
2023/10/21 09:57:19;;;;;;;1.27;1.27;;;;;;;15.28;75.45;99144.41;5076304;28;20264;-69
2023/10/21 09:59:46;;;;;;;1.17;1.17;;;;;;;15.28;74.76;99149.78;5075745;28;20187;-69
2023/10/21 10:02:14;;;;;;;1.20;1.20;;;;;;;15.23;74.84;99150.47;5075395;28;20194;-69
2023/10/21 10:04:41;;;;;;;1.50;1.50;;;;;;;15.07;75.13;99146.44;5075924;28;20186;-69
2023/10/21 10:07:09;;;;;;;1.47;1.43;;;;;;;14.89;75.09;99151.78;5075514;28;20206;-69
2023/10/21 10:09:47;;;;;;;1.93;1.87;;;;;;;14.89;75.59;99159.03;5075789;28;20202;-69
2023/10/21 10:12:20;;;;;;;1.77;1.77;;;;;;;14.99;74.51;99173.63;5075647;28;20198;-69
2023/10/21 10:14:46;;;;;;;1.37;1.37;;;;;;;15.12;74.93;99178.09;5075738;28;20186;-69
2023/10/21 10:17:13;;;;;;;4.50;1.43;;;;;;;15.26;75.13;99174.25;5075494;28;20566;-69
2023/10/21 10:19:42;;;;;;;1.50;1.50;;;;;;;15.24;72.78;99195.19;5075365;28;20186;-69
2023/10/21 10:22:30;;;;;;;1.60;1.60;;;;;;;15.27;71.26;99175.91;5075368;28;20183;-69
2023/10/21 10:25:05;;;;;;;1.40;1.40;;;;;;;15.31;73.05;99185.19;5075547;28;20233;-69
2023/10/21 10:27:38;;;;;;;4.67;1.40;;;;;;;15.45;70.78;99183.19;5075080;28;20210;-69
2023/10/21 10:30:08;;;;;;;1.30;1.30;;;;;;;15.35;70.78;99193.66;5075739;28;20175;-70
2023/10/21 10:32:43;;;;;;;1.37;1.37;;;;;;;15.43;70.26;99198.78;5075658;28;20320;-69
2023/10/21 10:35:29;;;;;;;7.40;1.87;;;;;;;15.26;69.72;99192.28;5075206;28;20232;-70
2023/10/21 10:37:56;;;;;;;1.43;1.43;;;;;;;15.27;70.01;99191.25;5075083;28;20171;-69
2023/10/21 10:40:38;;;;;;;1.70;1.70;;;;;;;15.36;70.29;99203.41;5074926;28;20194;-69
2023/10/21 10:43:11;;;;;;;2.10;2.10;;;;;;;15.34;70.98;99197.38;5075478;28;20183;-69
2023/10/21 10:45:38;;;;;;;2.70;1.63;;;;;;;15.46;71.30;99199.16;5074702;28;20629;-72
2023/10/21 10:48:07;;;;;;;5.60;1.73;;;;;;;15.51;70.39;99210.13;5075368;28;20252;-72
2023/10/21 10:50:38;;;;;;;1.70;1.70;;;;;;;15.61;69.59;99208.81;5075254;28;20546;-72
2023/10/21 10:53:16;;;;;;;1.73;1.70;;;;;;;15.71;68.59;99219.88;5074600;28;20228;-73
2023/10/21 10:55:55;;;;;;;1.50;1.50;;;;;;;15.81;68.60;99212.97;5074545;28;20202;-70
2023/10/21 10:58:23;;;;;;;1.47;1.47;;;;;;;15.76;69.92;99214.66;5074641;28;20179;-69
2023/10/21 11:00:51;;;;;;;7.50;1.20;;;;;;;15.52;69.19;99221.72;5074358;28;20194;-69
2023/10/21 11:03:23;;;;;;;1.23;1.23;;;;;;;15.73;68.46;99223.19;5074865;28;20665;-70
2023/10/21 11:05:52;;;;;;;1.73;1.30;;;;;;;15.81;66.57;99220.22;5074391;28;20214;-69
2023/10/21 11:08:18;;;;;;;1.67;1.57;;;;;;;15.89;67.30;99219.94;5074530;28;20251;-69
2023/10/21 11:10:45;;;;;;;1.20;1.20;;;;;;;16.08;67.46;99218.91;5074326;28;20265;-70
2023/10/21 11:13:11;;;;;;;1.43;1.43;;;;;;;16.00;65.43;99221.88;5074476;28;20202;-69
2023/10/21 11:15:47;;;;;;;3.20;1.70;;;;;;;16.00;65.55;99230.78;5073994;28;20244;-69
2023/10/21 11:18:15;;;;;;;1.97;1.53;;;;;;;15.95;66.83;99222.53;5074550;28;20213;-69
2023/10/21 11:20:49;;;;;;;9.53;1.20;;;;;;;15.92;65.91;99231.06;5074078;28;20197;-68
2023/10/21 11:23:20;;;;;;;2.63;1.20;;;;;;;16.11;65.09;99223.03;5074331;28;20248;-69
2023/10/21 11:25:50;;;;;;;4.90;1.70;;;;;;;16.13;64.52;99239.78;5074122;28;20198;-69
2023/10/21 11:28:18;;;;;;;3.23;1.17;;;;;;;16.32;64.41;99230.66;5074210;28;20238;-69
2023/10/21 11:30:46;;;;;;;2.80;1.30;;;;;;;16.26;65.28;99226.16;5074151;28;20190;-69
2023/10/21 11:33:13;;;;;;;1.90;1.50;;;;;;;16.19;65.83;99239.72;5073815;28;20198;-69
2023/10/21 11:35:41;;;;;;;1.73;1.00;;;;;;;16.09;64.93;99230.50;5073751;28;20206;-69
2023/10/21 11:38:08;;;;;;;7.43;1.50;;;;;;;16.12;66.51;99236.28;5073659;28;20183;-69
2023/10/21 11:40:36;;;;;;;0.90;0.90;;;;;;;16.00;66.18;99241.56;5073748;28;20654;-69